createdAt,value
2018-07-20T00:01:25.255Z,28.66
2018-07-20T00:02:25.158Z,28.66
2018-07-20T00:04:18.027Z,28.66
2018-07-20T00:05:18.059Z,28.66
2018-07-20T00:07:11.066Z,28.78
2018-07-20T00:08:11.028Z,28.79
2018-07-20T00:10:03.904Z,28.86
2018-07-20T00:11:03.908Z,28.90
2018-07-20T00:12:56.951Z,28.93
2018-07-20T00:13:56.869Z,28.91
2018-07-20T00:15:49.757Z,28.90
2018-07-20T00:16:49.850Z,28.91
2018-07-20T00:18:42.784Z,28.86
2018-07-20T00:19:42.748Z,28.95
2018-07-20T00:21:35.639Z,29.04
2018-07-20T00:22:35.632Z,28.94
2018-07-20T00:24:28.675Z,29.02
2018-07-20T00:25:28.586Z,29.04
2018-07-20T00:27:21.511Z,29.05
2018-07-20T00:28:21.521Z,29.02
2018-07-20T00:30:14.593Z,29.05
2018-07-20T00:31:14.466Z,29.16
2018-07-20T00:33:07.356Z,29.09
2018-07-20T00:34:07.369Z,29.17
2018-07-20T00:36:00.406Z,29.20
2018-07-20T00:37:00.321Z,29.10
2018-07-20T00:38:53.241Z,29.16
2018-07-20T00:39:53.254Z,29.19
2018-07-20T00:41:46.250Z,29.21
2018-07-20T00:42:46.199Z,29.19
2018-07-20T00:44:39.100Z,29.17
2018-07-20T00:45:39.130Z,29.17
2018-07-20T00:47:32.140Z,29.23
2018-07-20T00:48:32.047Z,29.20
2018-07-20T00:50:24.947Z,29.20
2018-07-20T00:51:24.974Z,29.23
2018-07-20T00:53:18.008Z,29.17
2018-07-20T00:54:17.895Z,29.21
2018-07-20T00:56:10.809Z,29.16
2018-07-20T00:57:10.830Z,29.09
2018-07-20T00:59:03.817Z,29.19
2018-07-20T01:00:03.759Z,29.23
2018-07-20T01:01:56.693Z,29.25
2018-07-20T01:02:56.687Z,29.19
2018-07-20T01:04:49.719Z,29.14
2018-07-20T01:05:49.637Z,29.14
2018-07-20T01:07:42.571Z,29.13
2018-07-20T01:08:42.573Z,29.13
2018-07-20T01:10:35.614Z,29.21
2018-07-20T01:11:35.540Z,29.21
2018-07-20T01:13:28.468Z,29.16
2018-07-20T01:14:28.453Z,29.11
2018-07-20T01:16:21.504Z,29.14
2018-07-20T01:17:21.397Z,29.13
2018-07-20T01:19:14.332Z,29.21
2018-07-20T01:20:14.345Z,29.21
2018-07-20T01:22:07.333Z,29.31
2018-07-20T01:23:07.270Z,29.36
2018-07-20T01:25:00.175Z,29.39
2018-07-20T01:26:00.188Z,29.29
2018-07-20T01:27:53.189Z,29.31
2018-07-20T01:28:53.106Z,29.21
2018-07-20T01:30:46.055Z,29.39
2018-07-20T01:31:46.117Z,29.38
2018-07-20T01:33:39.101Z,29.42
2018-07-20T01:34:38.991Z,29.46
2018-07-20T01:36:31.907Z,29.48
2018-07-20T01:37:31.900Z,29.54
2018-07-20T01:39:24.940Z,29.46
2018-07-20T01:40:24.844Z,29.44
2018-07-20T01:42:17.750Z,29.47
2018-07-20T01:43:17.752Z,29.46
2018-07-20T01:45:10.786Z,29.31
2018-07-20T01:46:10.779Z,29.23
2018-07-20T01:48:03.728Z,29.39
2018-07-20T01:49:03.620Z,29.51
2018-07-20T01:50:56.701Z,29.63
2018-07-20T01:51:56.573Z,29.81
2018-07-20T01:53:49.500Z,29.63
2018-07-20T01:54:49.502Z,29.66
2018-07-20T01:56:42.460Z,29.85
2018-07-20T01:57:42.440Z,29.84
2018-07-20T01:59:35.337Z,29.81
2018-07-20T02:00:35.433Z,29.91
2018-07-20T02:02:28.373Z,29.91
2018-07-20T02:03:28.304Z,29.99
2018-07-20T02:05:21.202Z,30.05
2018-07-20T02:06:21.227Z,30.02
2018-07-20T02:08:14.260Z,29.97
2018-07-20T02:09:14.166Z,30.06
2018-07-20T02:11:07.074Z,30.16
2018-07-20T02:12:07.105Z,30.09
2018-07-20T02:14:00.097Z,30.29
2018-07-20T02:15:00.046Z,30.22
2018-07-20T02:16:52.994Z,30.24
2018-07-20T02:17:53.006Z,30.31
2018-07-20T02:19:45.963Z,30.28
2018-07-20T02:20:45.926Z,30.37
2018-07-20T02:22:38.871Z,30.34
2018-07-20T02:23:38.892Z,30.40
2018-07-20T02:25:31.859Z,30.32
2018-07-20T02:26:31.823Z,30.36
2018-07-20T02:28:24.715Z,30.14
2018-07-20T02:29:24.763Z,30.25
2018-07-20T02:31:17.766Z,30.40
2018-07-20T02:32:17.646Z,30.43
2018-07-20T02:34:10.595Z,30.44
2018-07-20T02:35:10.611Z,30.44
2018-07-20T02:37:29.715Z,30.36
2018-07-20T02:38:03.555Z,30.36
2018-07-20T02:39:56.439Z,30.25
2018-07-20T02:40:56.550Z,30.32
2018-07-20T02:42:49.486Z,30.37
2018-07-20T02:43:49.405Z,30.27
2018-07-20T02:45:42.325Z,30.27
2018-07-20T02:46:42.320Z,30.28
2018-07-20T02:48:35.354Z,30.22
2018-07-20T02:49:35.284Z,30.22
2018-07-20T02:51:28.169Z,30.25
2018-07-20T02:52:28.183Z,30.24
2018-07-20T02:54:21.200Z,30.25
2018-07-20T02:55:21.144Z,30.22
2018-07-20T02:57:14.031Z,30.14
2018-07-20T02:58:14.055Z,30.21
2018-07-20T03:00:07.159Z,30.18
2018-07-20T03:01:06.988Z,30.13
2018-07-20T03:02:59.977Z,30.07
2018-07-20T03:03:59.922Z,30.12
2018-07-20T03:05:53.021Z,30.21
2018-07-20T03:06:52.974Z,30.09
2018-07-20T03:08:45.911Z,30.07
2018-07-20T03:09:45.906Z,30.13
2018-07-20T03:11:38.890Z,30.20
2018-07-20T03:12:38.817Z,30.16
2018-07-20T03:14:31.744Z,30.20
2018-07-20T03:15:31.761Z,30.05
2018-07-20T03:17:24.795Z,29.79
2018-07-20T03:18:24.714Z,29.87
2018-07-20T03:20:17.618Z,29.91
2018-07-20T03:21:17.615Z,29.94
2018-07-20T03:23:10.662Z,29.90
2018-07-20T03:24:10.577Z,29.83
2018-07-20T03:26:04.057Z,29.70
2018-07-20T03:27:03.488Z,29.76
2018-07-20T03:28:56.565Z,29.65
2018-07-20T03:29:56.439Z,29.76
2018-07-20T03:31:49.358Z,29.68
2018-07-20T03:32:49.425Z,29.65
2018-07-20T03:34:42.392Z,29.84
2018-07-20T03:35:42.308Z,29.78
2018-07-20T03:37:35.202Z,29.73
2018-07-20T03:38:35.231Z,29.83
2018-07-20T03:40:28.518Z,29.97
2018-07-20T03:41:28.133Z,29.90
2018-07-20T03:43:21.083Z,30.00
2018-07-20T03:44:21.097Z,30.03
2018-07-20T03:46:14.095Z,29.94
2018-07-20T03:47:14.014Z,29.91
2018-07-20T03:49:06.980Z,29.94
2018-07-20T03:50:06.929Z,30.02
2018-07-20T03:51:59.967Z,30.02
2018-07-20T03:52:59.896Z,30.05
2018-07-20T03:54:52.811Z,30.02
2018-07-20T03:55:52.827Z,30.12
2018-07-20T03:57:45.887Z,30.16
2018-07-20T03:58:45.764Z,30.16
2018-07-20T04:00:38.658Z,30.31
2018-07-20T04:01:38.679Z,30.29
2018-07-20T04:03:31.691Z,30.43
2018-07-20T04:04:31.631Z,30.43
2018-07-20T04:06:24.533Z,30.50
2018-07-20T04:07:24.515Z,30.52
2018-07-20T04:09:21.153Z,30.52
2018-07-20T04:10:17.500Z,30.63
2018-07-20T04:12:10.410Z,30.57
2018-07-20T04:13:10.416Z,30.60
2018-07-20T04:15:21.463Z,30.70
2018-07-20T04:16:03.348Z,30.72
2018-07-20T04:17:56.262Z,30.80
2018-07-20T04:18:56.287Z,30.81
2018-07-20T04:20:49.294Z,30.80
2018-07-20T04:21:49.211Z,30.80
2018-07-20T04:23:42.194Z,30.88
2018-07-20T04:24:42.153Z,30.94
2018-07-20T04:26:49.237Z,30.72
2018-07-20T04:27:35.080Z,30.62
2018-07-20T04:29:27.994Z,30.59
2018-07-20T04:30:27.977Z,30.52
2018-07-20T04:32:20.984Z,30.60
2018-07-20T04:33:20.940Z,30.70
2018-07-20T04:35:13.855Z,30.80
2018-07-20T04:36:13.895Z,30.91
2018-07-20T04:38:06.870Z,30.74
2018-07-20T04:39:06.805Z,30.87
2018-07-20T04:40:59.720Z,30.99
2018-07-20T04:41:59.740Z,31.00
2018-07-20T04:43:52.789Z,31.04
2018-07-20T04:44:52.655Z,31.14
2018-07-20T04:46:45.661Z,31.18
2018-07-20T04:47:45.592Z,31.16
2018-07-20T04:49:38.576Z,31.31
2018-07-20T04:50:38.522Z,31.37
2018-07-20T04:52:31.461Z,31.31
2018-07-20T04:53:31.480Z,31.46
2018-07-20T04:55:24.448Z,31.48
2018-07-20T04:56:24.387Z,31.48
2018-07-20T04:58:17.324Z,31.53
2018-07-20T04:59:17.307Z,31.55
2018-07-20T05:01:10.356Z,31.55
2018-07-20T05:02:10.271Z,31.53
2018-07-20T05:04:03.156Z,31.67
2018-07-20T05:05:03.187Z,31.53
2018-07-20T05:06:56.218Z,31.51
2018-07-20T05:07:56.130Z,31.62
2018-07-20T05:09:49.619Z,31.77
2018-07-20T05:10:49.061Z,31.78
2018-07-20T05:12:42.107Z,31.91
2018-07-20T05:13:42.012Z,31.98
2018-07-20T05:15:34.977Z,32.19
2018-07-20T05:16:34.954Z,32.19
2018-07-20T05:18:28.017Z,32.08
2018-07-20T05:19:27.893Z,32.01
2018-07-20T05:21:20.778Z,31.75
2018-07-20T05:22:20.808Z,31.75
2018-07-20T05:24:13.852Z,31.80
2018-07-20T05:25:13.773Z,31.82
2018-07-20T05:27:06.680Z,31.75
2018-07-20T05:28:06.710Z,31.75
2018-07-20T05:29:59.742Z,31.74
2018-07-20T05:30:59.678Z,31.62
2018-07-20T05:32:52.563Z,31.52
2018-07-20T05:33:52.580Z,31.59
2018-07-20T05:35:52.157Z,31.75
2018-07-20T05:36:45.507Z,31.74
2018-07-20T05:38:38.397Z,31.59
2018-07-20T05:39:38.425Z,31.60
2018-07-20T05:41:31.510Z,31.75
2018-07-20T05:42:31.361Z,31.68
2018-07-20T05:44:24.312Z,31.80
2018-07-20T05:45:24.318Z,31.77
2018-07-20T05:47:17.358Z,31.90
2018-07-20T05:48:17.231Z,31.94
2018-07-20T05:50:10.166Z,31.90
2018-07-20T05:51:10.172Z,31.94
2018-07-20T05:53:10.291Z,31.60
2018-07-20T05:54:03.111Z,31.59
2018-07-20T05:55:56.022Z,31.55
2018-07-20T05:56:56.083Z,31.58
2018-07-20T05:58:49.368Z,31.71
2018-07-20T05:59:48.984Z,31.70
2018-07-20T06:01:41.928Z,31.68
2018-07-20T06:02:41.938Z,31.63
2018-07-20T06:04:34.924Z,31.66
2018-07-20T06:05:34.913Z,31.66
2018-07-20T06:07:27.791Z,31.51
2018-07-20T06:08:27.785Z,31.55
2018-07-20T06:10:20.835Z,31.51
2018-07-20T06:11:20.741Z,31.44
2018-07-20T06:13:13.694Z,31.46
2018-07-20T06:14:13.759Z,31.30
2018-07-20T06:16:06.705Z,31.30
2018-07-20T06:17:06.600Z,31.25
2018-07-20T06:18:59.561Z,31.18
2018-07-20T06:19:59.535Z,31.11
2018-07-20T06:21:52.619Z,31.03
2018-07-20T06:22:52.507Z,31.03
2018-07-20T06:24:45.392Z,31.03
2018-07-20T06:25:45.442Z,30.96
2018-07-20T06:27:38.480Z,30.81
2018-07-20T06:28:38.338Z,30.63
2018-07-20T06:30:31.290Z,30.40
2018-07-20T06:31:31.305Z,30.39
2018-07-20T06:33:24.323Z,30.16
2018-07-20T06:34:24.244Z,30.10
2018-07-20T06:36:17.162Z,29.81
2018-07-20T06:37:17.170Z,29.55
2018-07-20T06:39:10.405Z,29.19
2018-07-20T06:40:10.140Z,29.05
2018-07-20T06:42:03.009Z,28.90
2018-07-20T06:43:03.053Z,28.76
2018-07-20T06:44:55.988Z,28.46
2018-07-20T06:45:55.971Z,28.32
2018-07-20T06:47:48.875Z,28.22
2018-07-20T06:48:48.916Z,28.07
2018-07-20T06:50:41.948Z,28.02
2018-07-20T06:51:41.835Z,27.90
2018-07-20T06:53:34.749Z,27.65
2018-07-20T06:54:34.741Z,27.61
2018-07-20T06:56:35.379Z,27.55
2018-07-20T06:57:27.698Z,27.42
2018-07-20T06:59:20.606Z,27.48
2018-07-20T07:00:20.619Z,27.42
2018-07-20T07:02:13.654Z,27.46
2018-07-20T07:03:13.548Z,27.37
2018-07-20T07:05:07.465Z,27.45
2018-07-20T07:06:07.478Z,27.48
2018-07-20T07:08:00.563Z,27.41
2018-07-20T07:09:00.406Z,27.44
2018-07-20T07:10:53.303Z,27.48
2018-07-20T07:11:53.316Z,27.45
2018-07-20T07:13:46.403Z,27.49
2018-07-20T07:14:46.292Z,27.48
2018-07-20T07:16:39.199Z,27.45
2018-07-20T07:17:39.192Z,27.52
2018-07-20T07:19:32.167Z,27.60
2018-07-20T07:20:32.125Z,27.48
2018-07-20T07:22:25.009Z,27.45
2018-07-20T07:23:25.038Z,27.54
2018-07-20T07:25:18.076Z,27.51
2018-07-20T07:26:17.974Z,27.46
2018-07-20T07:28:10.933Z,27.44
2018-07-20T07:29:10.934Z,27.39
2018-07-20T07:31:04.424Z,27.51
2018-07-20T07:32:03.822Z,27.44
2018-07-20T07:33:56.728Z,27.36
2018-07-20T07:34:56.741Z,27.37
2018-07-20T07:36:49.763Z,27.26
2018-07-20T07:37:49.681Z,27.27
2018-07-20T07:39:42.563Z,27.24
2018-07-20T07:40:42.596Z,27.33
2018-07-20T07:42:35.643Z,27.37
2018-07-20T07:43:35.520Z,27.41
2018-07-20T07:45:28.422Z,27.37
2018-07-20T07:46:28.442Z,27.27
2018-07-20T07:48:21.647Z,27.29
2018-07-20T07:49:21.511Z,27.24
2018-07-20T07:51:14.296Z,27.33
2018-07-20T07:52:14.276Z,27.33
2018-07-20T07:54:07.339Z,27.33
2018-07-20T07:55:07.230Z,27.22
2018-07-20T07:57:00.187Z,27.24
2018-07-20T07:58:00.155Z,27.33
2018-07-20T07:59:53.371Z,27.30
2018-07-20T08:00:53.075Z,27.32
2018-07-20T08:02:45.988Z,27.34
2018-07-20T08:03:46.001Z,27.36
2018-07-20T08:05:38.946Z,27.39
2018-07-20T08:06:38.927Z,27.30
2018-07-20T08:08:31.849Z,27.32
2018-07-20T08:09:31.854Z,27.27
2018-07-20T08:11:25.147Z,27.32
2018-07-20T08:12:24.989Z,27.36
2018-07-20T08:14:17.904Z,27.37
2018-07-20T08:15:17.899Z,27.36
2018-07-20T08:17:10.948Z,27.41
2018-07-20T08:18:10.824Z,27.24
2018-07-20T08:20:03.755Z,27.34
2018-07-20T08:21:03.759Z,27.39
2018-07-20T08:22:56.830Z,27.54
2018-07-20T08:23:56.684Z,27.49
2018-07-20T08:25:49.613Z,27.54
2018-07-20T08:26:49.618Z,27.54
2018-07-20T08:28:42.680Z,27.55
2018-07-20T08:29:42.531Z,27.54
2018-07-20T08:31:35.522Z,27.39
2018-07-20T08:32:35.466Z,27.29
2018-07-20T08:34:28.518Z,27.34
2018-07-20T08:35:28.378Z,27.44
2018-07-20T08:37:21.335Z,27.49
2018-07-20T08:38:21.350Z,27.58
2018-07-20T08:40:14.535Z,27.54
2018-07-20T08:41:14.290Z,27.60
2018-07-20T08:43:07.156Z,27.55
2018-07-20T08:44:07.196Z,27.51
2018-07-20T08:46:00.243Z,27.61
2018-07-20T08:47:00.102Z,27.64
2018-07-20T08:48:53.030Z,27.67
2018-07-20T08:49:53.067Z,27.51
2018-07-20T08:51:56.613Z,27.61
2018-07-20T08:52:45.985Z,27.70
2018-07-20T08:54:38.912Z,27.72
2018-07-20T08:55:38.922Z,27.72
2018-07-20T08:57:31.940Z,27.72
2018-07-20T08:58:31.857Z,27.62
2018-07-20T09:00:24.774Z,27.62
2018-07-20T09:01:24.765Z,27.70
2018-07-20T09:03:18.386Z,27.64
2018-07-20T09:04:17.775Z,27.71
2018-07-20T09:06:10.689Z,27.65
2018-07-20T09:07:10.622Z,27.62
2018-07-20T09:09:03.889Z,27.71
2018-07-20T09:10:03.578Z,27.74
2018-07-20T09:11:57.061Z,27.71
2018-07-20T09:12:56.679Z,27.72
2018-07-20T09:14:49.747Z,27.74
2018-07-20T09:15:49.620Z,27.71
2018-07-20T09:17:42.519Z,27.70
2018-07-20T09:18:42.574Z,27.72
2018-07-20T09:20:35.640Z,27.74
2018-07-20T09:21:35.574Z,27.71
2018-07-20T09:23:28.421Z,27.71
2018-07-20T09:24:28.400Z,27.70
2018-07-20T09:26:21.389Z,27.68
2018-07-20T09:27:21.359Z,27.77
2018-07-20T09:29:14.227Z,27.82
2018-07-20T09:30:14.242Z,27.79
2018-07-20T09:32:18.389Z,27.85
2018-07-20T09:33:07.214Z,27.85
2018-07-20T09:35:00.117Z,27.83
2018-07-20T09:36:00.107Z,27.93
2018-07-20T09:37:53.168Z,27.86
2018-07-20T09:38:53.070Z,27.89
2018-07-20T09:40:45.944Z,27.90
2018-07-20T09:41:46.002Z,27.92
2018-07-20T09:43:38.984Z,28.01
2018-07-20T09:44:38.923Z,27.99
2018-07-20T09:46:31.837Z,28.02
2018-07-20T09:47:31.829Z,27.97
2018-07-20T09:49:24.864Z,28.01
2018-07-20T09:50:24.792Z,28.09
2018-07-20T09:52:17.708Z,27.98
2018-07-20T09:53:17.692Z,28.01
2018-07-20T09:55:10.750Z,27.99
2018-07-20T09:56:10.617Z,27.97
2018-07-20T09:58:03.555Z,27.97
2018-07-20T09:59:03.571Z,28.02
2018-07-20T10:01:15.167Z,28.07
2018-07-20T10:01:56.506Z,27.98
2018-07-20T10:03:49.403Z,28.01
2018-07-20T10:04:49.441Z,28.09
2018-07-20T10:06:42.468Z,27.98
2018-07-20T10:07:42.339Z,28.01
2018-07-20T10:09:35.248Z,27.97
2018-07-20T10:10:35.352Z,28.02
2018-07-20T10:12:28.338Z,28.04
2018-07-20T10:13:28.220Z,28.05
2018-07-20T10:15:21.135Z,28.05
2018-07-20T10:16:21.128Z,28.08
2018-07-20T10:18:14.410Z,28.09
2018-07-20T10:19:14.104Z,28.09
2018-07-20T10:21:06.983Z,28.04
2018-07-20T10:22:06.998Z,28.12
2018-07-20T10:24:00.052Z,28.09
2018-07-20T10:24:59.949Z,28.02
2018-07-20T10:26:52.850Z,28.04
2018-07-20T10:27:52.886Z,28.09
2018-07-20T10:29:45.900Z,28.11
2018-07-20T10:30:45.871Z,28.16
2018-07-20T10:32:38.711Z,28.22
2018-07-20T10:33:38.725Z,28.19
2018-07-20T10:35:31.777Z,28.26
2018-07-20T10:36:31.676Z,28.11
2018-07-20T10:38:24.568Z,28.09
2018-07-20T10:39:24.598Z,28.11
2018-07-20T10:41:17.827Z,28.01
2018-07-20T10:42:17.537Z,28.01
2018-07-20T10:44:10.448Z,27.98
2018-07-20T10:45:10.461Z,27.97
2018-07-20T10:47:03.459Z,28.04
2018-07-20T10:48:03.418Z,28.02
2018-07-20T10:49:56.326Z,27.99
2018-07-20T10:50:56.324Z,27.87
2018-07-20T10:52:49.301Z,27.82
2018-07-20T10:53:49.265Z,27.79
2018-07-20T10:55:42.183Z,27.72
2018-07-20T10:56:42.196Z,27.72
2018-07-20T10:58:35.152Z,27.65
2018-07-20T10:59:35.091Z,27.60
2018-07-20T11:01:28.147Z,27.77
2018-07-20T11:02:28.061Z,27.61
2018-07-20T11:04:21.073Z,27.70
2018-07-20T11:05:20.954Z,27.68
2018-07-20T11:07:13.899Z,27.68
2018-07-20T11:08:13.978Z,27.64
2018-07-20T11:10:32.998Z,27.65
2018-07-20T11:11:06.841Z,27.74
2018-07-20T11:12:59.773Z,27.77
2018-07-20T11:13:59.763Z,27.72
2018-07-20T11:15:52.814Z,27.75
2018-07-20T11:16:52.719Z,27.75
2018-07-20T11:18:45.624Z,27.72
2018-07-20T11:19:45.622Z,27.74
2018-07-20T11:21:38.674Z,27.60
2018-07-20T11:22:38.559Z,27.70
2018-07-20T11:24:31.478Z,27.62
2018-07-20T11:25:31.503Z,27.54
2018-07-20T11:27:24.526Z,27.62
2018-07-20T11:28:24.418Z,27.55
2018-07-20T11:30:17.317Z,27.62
2018-07-20T11:31:17.351Z,27.61
2018-07-20T11:33:10.390Z,27.61
2018-07-20T11:34:10.243Z,27.52
2018-07-20T11:36:03.164Z,27.46
2018-07-20T11:37:03.196Z,27.41
2018-07-20T11:38:56.288Z,27.42
2018-07-20T11:39:56.120Z,27.54
2018-07-20T11:41:49.109Z,27.52
2018-07-20T11:42:49.060Z,27.55
2018-07-20T11:44:42.327Z,27.58
2018-07-20T11:45:41.957Z,27.68
2018-07-20T11:47:34.894Z,27.60
2018-07-20T11:48:34.902Z,27.55
2018-07-20T11:50:28.072Z,27.64
2018-07-20T11:51:27.808Z,27.64
2018-07-20T11:53:20.744Z,27.58
2018-07-20T11:54:20.756Z,27.58
2018-07-20T11:56:13.780Z,27.60
2018-07-20T11:57:13.675Z,27.52
2018-07-20T11:59:06.575Z,27.60
2018-07-20T12:00:06.620Z,27.55
2018-07-20T12:01:59.689Z,27.60
2018-07-20T12:02:59.544Z,27.52
2018-07-20T12:04:52.448Z,27.68
2018-07-20T12:05:52.477Z,27.64
2018-07-20T12:07:45.510Z,27.67
2018-07-20T12:08:45.386Z,27.58
2018-07-20T12:10:38.308Z,27.72
2018-07-20T12:11:38.322Z,27.75
2018-07-20T12:13:31.334Z,27.77
2018-07-20T12:14:31.250Z,27.80
2018-07-20T12:16:24.171Z,27.80
2018-07-20T12:17:24.159Z,27.80
2018-07-20T12:19:17.429Z,27.80
2018-07-20T12:20:17.103Z,27.71
2018-07-20T12:22:10.001Z,27.62
2018-07-20T12:23:10.033Z,27.61
2018-07-20T12:25:03.044Z,27.67
2018-07-20T12:26:02.967Z,27.64
2018-07-20T12:27:55.876Z,27.65
2018-07-20T12:28:55.900Z,27.67
2018-07-20T12:30:48.963Z,27.71
2018-07-20T12:31:48.812Z,27.75
2018-07-20T12:33:41.733Z,27.74
2018-07-20T12:34:41.753Z,27.74
2018-07-20T12:36:34.753Z,27.74
2018-07-20T12:37:34.646Z,27.74
2018-07-20T12:39:27.560Z,27.74
2018-07-20T12:40:27.592Z,27.65
2018-07-20T12:42:25.667Z,27.58
2018-07-20T12:43:20.532Z,27.58
2018-07-20T12:45:13.457Z,27.65
2018-07-20T12:46:13.423Z,27.64
2018-07-20T12:48:06.374Z,27.67
2018-07-20T12:49:06.349Z,27.64
2018-07-20T12:50:59.846Z,27.67
2018-07-20T12:51:59.287Z,27.68
2018-07-20T12:53:52.339Z,27.70
2018-07-20T12:54:52.242Z,27.68
2018-07-20T12:56:45.151Z,27.62
2018-07-20T12:57:45.150Z,27.77
2018-07-20T12:59:38.365Z,27.62
2018-07-20T13:00:38.090Z,27.74
2018-07-20T13:02:31.007Z,27.74
2018-07-20T13:03:30.999Z,27.71
2018-07-20T13:05:24.235Z,27.74
2018-07-20T13:06:23.946Z,27.72
2018-07-20T13:08:16.915Z,27.74
2018-07-20T13:09:16.887Z,27.67
2018-07-20T13:11:09.945Z,27.77
2018-07-20T13:12:09.943Z,27.71
2018-07-20T13:14:02.726Z,27.72
2018-07-20T13:15:02.737Z,27.79
2018-07-20T13:16:56.041Z,27.79
2018-07-20T13:17:55.743Z,27.77
2018-07-20T13:19:48.595Z,27.72
2018-07-20T13:20:48.611Z,27.75
2018-07-20T13:22:41.653Z,27.80
2018-07-20T13:23:41.563Z,27.80
2018-07-20T13:25:34.441Z,27.82
2018-07-20T13:26:34.455Z,27.79
2018-07-20T13:28:27.504Z,27.80
2018-07-20T13:29:27.381Z,27.83
2018-07-20T13:31:20.325Z,27.86
2018-07-20T13:32:20.328Z,27.89
2018-07-20T13:34:13.421Z,27.86
2018-07-20T13:35:13.260Z,27.93
2018-07-20T13:37:06.219Z,27.90
2018-07-20T13:38:06.188Z,27.87
2018-07-20T13:39:59.406Z,27.98
2018-07-20T13:40:59.105Z,27.87
2018-07-20T13:42:52.087Z,27.90
2018-07-20T13:43:52.029Z,27.87
2018-07-20T13:45:45.063Z,27.98
2018-07-20T13:46:44.936Z,27.92
2018-07-20T13:48:37.840Z,27.85
2018-07-20T13:49:37.936Z,27.89
2018-07-20T13:51:31.180Z,27.93
2018-07-20T13:52:31.235Z,27.97
2018-07-20T13:54:23.907Z,27.93
2018-07-20T13:55:23.941Z,27.80
2018-07-20T13:57:17.025Z,27.87
2018-07-20T13:58:16.849Z,27.80
2018-07-20T14:00:09.770Z,27.85
2018-07-20T14:01:09.811Z,27.77
2018-07-20T14:03:02.837Z,27.80
2018-07-20T14:04:02.716Z,27.85
2018-07-20T14:05:55.638Z,27.77
2018-07-20T14:06:55.632Z,27.90
2018-07-20T14:08:48.686Z,27.83
2018-07-20T14:09:48.605Z,27.95
2018-07-20T14:11:41.509Z,27.93
2018-07-20T14:12:41.491Z,27.87
2018-07-20T14:14:34.490Z,27.89
2018-07-20T14:15:34.423Z,27.83
2018-07-20T14:17:27.343Z,27.83
2018-07-20T14:18:27.337Z,27.80
2018-07-20T14:20:20.337Z,27.85
2018-07-20T14:21:20.295Z,27.87
2018-07-20T14:23:13.200Z,27.87
2018-07-20T14:24:13.212Z,27.90
2018-07-20T14:26:06.242Z,27.90
2018-07-20T14:27:06.110Z,27.87
2018-07-20T14:28:59.016Z,27.87
2018-07-20T14:29:59.040Z,27.89
2018-07-20T14:31:52.402Z,27.92
2018-07-20T14:32:51.995Z,27.97
2018-07-20T14:34:44.902Z,27.99
2018-07-20T14:35:44.905Z,27.92
2018-07-20T14:37:37.945Z,28.04
2018-07-20T14:38:37.817Z,27.97
2018-07-20T14:40:30.730Z,27.89
2018-07-20T14:41:30.747Z,27.90
2018-07-20T14:43:23.814Z,27.86
2018-07-20T14:44:23.693Z,27.89
2018-07-20T14:46:16.592Z,27.92
2018-07-20T14:47:16.615Z,27.95
2018-07-20T14:49:09.844Z,27.99
2018-07-20T14:50:09.558Z,27.92
2018-07-20T14:52:02.469Z,27.85
2018-07-20T14:53:02.452Z,27.93
2018-07-20T14:54:55.520Z,27.99
2018-07-20T14:55:55.361Z,27.89
2018-07-20T14:57:48.335Z,27.86
2018-07-20T14:58:48.312Z,27.89
2018-07-20T15:00:41.333Z,27.89
2018-07-20T15:01:41.289Z,27.99
2018-07-20T15:03:34.221Z,27.90
2018-07-20T15:04:34.205Z,27.89
2018-07-20T15:06:34.954Z,27.93
2018-07-20T15:07:27.092Z,27.90
2018-07-20T15:09:20.570Z,27.89
2018-07-20T15:10:20.034Z,27.95
2018-07-20T15:12:13.061Z,27.79
2018-07-20T15:13:12.945Z,27.80
2018-07-20T15:15:06.401Z,27.65
2018-07-20T15:16:05.871Z,27.71
2018-07-20T15:17:58.923Z,27.79
2018-07-20T15:18:58.880Z,27.82
2018-07-20T15:20:51.790Z,27.89
2018-07-20T15:21:51.736Z,27.89
2018-07-20T15:23:44.676Z,27.90
2018-07-20T15:24:44.641Z,27.83
2018-07-20T15:26:37.596Z,27.89
2018-07-20T15:27:37.599Z,27.80
2018-07-20T15:29:30.800Z,27.77
2018-07-20T15:30:30.499Z,27.87
2018-07-20T15:32:23.411Z,27.86
2018-07-20T15:33:23.481Z,27.85
2018-07-20T15:35:17.222Z,27.83
2018-07-20T15:36:16.382Z,27.82
2018-07-20T15:38:09.369Z,27.79
2018-07-20T15:39:09.333Z,27.83
2018-07-20T15:41:02.407Z,27.83
2018-07-20T15:42:02.226Z,27.86
2018-07-20T15:43:55.195Z,27.89
2018-07-20T15:44:55.160Z,27.86
2018-07-20T15:46:48.573Z,27.98
2018-07-20T15:47:48.086Z,27.98
2018-07-20T15:49:41.024Z,27.92
2018-07-20T15:50:41.008Z,27.87
2018-07-20T15:53:36.265Z,27.83
2018-07-20T15:55:26.840Z,27.90
2018-07-20T15:56:26.886Z,27.89
2018-07-20T15:58:19.926Z,27.89
2018-07-20T15:59:19.778Z,27.97
2018-07-20T16:01:12.734Z,27.95
2018-07-20T16:02:12.716Z,27.97
2018-07-20T16:04:05.905Z,27.92
2018-07-20T16:05:05.680Z,28.08
2018-07-20T16:06:58.568Z,27.95
2018-07-20T16:07:58.601Z,28.04
2018-07-20T16:09:51.770Z,28.01
2018-07-20T16:10:51.503Z,27.98
2018-07-20T16:12:44.423Z,27.99
2018-07-20T16:13:44.456Z,27.90
2018-07-20T16:15:37.390Z,27.98
2018-07-20T16:16:37.396Z,27.99
2018-07-20T16:18:30.300Z,28.01
2018-07-20T16:19:30.314Z,28.02
2018-07-20T16:21:23.363Z,27.99
2018-07-20T16:22:23.339Z,28.04
2018-07-20T16:24:16.166Z,28.05
2018-07-20T16:25:16.176Z,28.14
2018-07-20T16:27:09.383Z,28.08
2018-07-20T16:28:09.132Z,28.05
2018-07-20T16:30:02.009Z,28.08
2018-07-20T16:31:02.042Z,28.04
2018-07-20T16:32:55.112Z,28.16
2018-07-20T16:33:54.959Z,28.14
2018-07-20T16:35:47.891Z,28.07
2018-07-20T16:36:47.881Z,28.08
2018-07-20T16:38:41.069Z,28.08
2018-07-20T16:39:40.773Z,28.05
2018-07-20T16:41:33.728Z,28.08
2018-07-20T16:42:33.725Z,28.02
2018-07-20T16:44:26.749Z,28.08
2018-07-20T16:45:26.660Z,28.12
2018-07-20T16:47:19.585Z,28.07
2018-07-20T16:48:19.588Z,28.07
2018-07-20T16:50:12.568Z,28.14
2018-07-20T16:51:12.498Z,28.05
2018-07-20T16:53:05.443Z,28.12
2018-07-20T16:54:05.444Z,28.14
2018-07-20T16:55:58.400Z,28.11
2018-07-20T16:56:58.371Z,28.05
2018-07-20T16:58:51.296Z,28.08
2018-07-20T16:59:51.295Z,28.24
2018-07-20T17:01:44.350Z,28.23
2018-07-20T17:02:44.243Z,28.11
2018-07-20T17:04:37.126Z,28.17
2018-07-20T17:05:37.140Z,28.08
2018-07-20T17:07:30.256Z,28.08
2018-07-20T17:08:30.108Z,28.11
2018-07-20T17:10:23.022Z,28.08
2018-07-20T17:11:23.060Z,28.08
2018-07-20T17:13:16.263Z,28.27
2018-07-20T17:14:15.969Z,28.22
2018-07-20T17:16:08.906Z,28.09
2018-07-20T17:17:08.924Z,28.09
2018-07-20T17:19:01.951Z,28.08
2018-07-20T17:20:01.855Z,28.08
2018-07-20T17:21:55.316Z,28.08
2018-07-20T17:22:54.779Z,28.02
2018-07-20T17:24:47.780Z,27.98
2018-07-20T17:25:47.672Z,27.99
2018-07-20T17:27:40.607Z,27.99
2018-07-20T17:28:40.602Z,27.99
2018-07-20T17:30:33.656Z,28.04
2018-07-20T17:31:33.568Z,27.99
2018-07-20T17:33:26.471Z,28.07
2018-07-20T17:34:26.485Z,28.02
2018-07-20T17:36:19.425Z,28.01
2018-07-20T17:37:19.383Z,28.02
2018-07-20T17:39:12.327Z,27.87
2018-07-20T17:40:12.352Z,27.85
2018-07-20T17:42:05.550Z,27.74
2018-07-20T17:43:05.270Z,27.70
2018-07-20T17:44:58.150Z,27.65
2018-07-20T17:45:58.205Z,27.60
2018-07-20T17:47:51.771Z,27.60
2018-07-20T17:48:51.106Z,27.61
2018-07-20T17:50:44.016Z,27.61
2018-07-20T17:51:44.030Z,27.60
2018-07-20T17:53:37.085Z,27.58
2018-07-20T17:54:36.977Z,27.51
2018-07-20T17:56:29.869Z,27.49
2018-07-20T17:57:29.890Z,27.45
2018-07-20T17:59:22.902Z,27.45
2018-07-20T18:00:22.828Z,27.34
2018-07-20T18:02:15.725Z,27.41
2018-07-20T18:03:15.739Z,27.37
2018-07-20T18:05:08.764Z,27.44
2018-07-20T18:06:08.661Z,27.42
2018-07-20T18:08:01.603Z,27.42
2018-07-20T18:09:01.609Z,27.32
2018-07-20T18:10:54.807Z,27.36
2018-07-20T18:11:54.531Z,27.30
2018-07-20T18:13:47.412Z,27.33
2018-07-20T18:14:47.429Z,27.24
2018-07-20T18:16:40.497Z,27.24
2018-07-20T18:17:40.367Z,27.22
2018-07-20T18:19:33.293Z,27.24
2018-07-20T18:20:33.318Z,27.26
2018-07-20T18:22:26.364Z,27.23
2018-07-20T18:23:26.205Z,27.30
2018-07-20T18:25:19.176Z,27.30
2018-07-20T18:26:19.164Z,27.29
2018-07-20T18:28:12.357Z,27.26
2018-07-20T18:29:12.101Z,27.22
2018-07-20T18:31:05.014Z,27.24
2018-07-20T18:32:05.024Z,27.23
2018-07-20T18:33:58.187Z,27.30
2018-07-20T18:34:58.041Z,27.23